Time;durP1;ratioP1;P1;durP2;ratioP2;P2;SDS_P1;SDS_P2;PMS_P1;PMS_P2;Temp;Humidity;BMP_temperature;BMP_pressure;BME280_temperature;BME280_humidity;BME280_pressure;Samples;Min_cycle;Max_cycle;Signal;HPM_P1;HPM_P2
2023/04/14 00:00:07;;;;;;;14.60;10.18;;;;;;;;;;4882209;29;20100;-94
2023/04/14 00:08:56;;;;;;;14.25;10.10;;;;;;;;;;4863517;29;20149;-94
2023/04/14 00:11:23;;;;;;;15.27;10.45;;;;;;;;;;4878538;29;20166;-92
2023/04/14 00:13:49;;;;;;;17.25;11.02;;;;;;;;;;4863090;29;20029;-94
2023/04/14 00:16:15;;;;;;;17.65;11.35;;;;;;;;;;4879632;29;20041;-93
2023/04/14 00:18:41;;;;;;;18.15;12.02;;;;;;;;;;4877944;29;20033;-93
2023/04/14 00:21:07;;;;;;;15.00;10.90;;;;;;;;;;4878580;29;20030;-93
2023/04/14 00:23:33;;;;;;;18.50;12.02;;;;;;;;;;4879602;29;20034;-92
2023/04/14 00:26:00;;;;;;;18.27;11.88;;;;;;;;;;4879032;29;20030;-93
2023/04/14 00:28:26;;;;;;;20.73;12.65;;;;;;;;;;4878005;29;20270;-94
2023/04/14 00:30:52;;;;;;;20.38;13.25;;;;;;;;;;4877145;29;20040;-94
2023/04/14 00:33:18;;;;;;;19.45;13.13;;;;;;;;;;4881485;29;20041;-92
2023/04/14 00:35:44;;;;;;;16.65;12.68;;;;;;;;;;4877680;29;20033;-91
2023/04/14 00:38:14;;;;;;;17.83;12.80;;;;;;;;;;4879824;29;20061;-94
2023/04/14 00:40:40;;;;;;;17.77;11.88;;;;;;;;;;4879230;29;20030;-93
2023/04/14 00:43:06;;;;;;;16.73;12.57;;;;;;;;;;4877628;29;20562;-92
2023/04/14 00:45:38;;;;;;;16.27;11.93;;;;;;;;;;4876082;29;20025;-92
2023/04/14 00:48:04;;;;;;;18.50;12.20;;;;;;;;;;4876470;29;20033;-93
2023/04/14 00:50:30;;;;;;;17.17;12.02;;;;;;;;;;4876993;29;20487;-94
2023/04/14 00:52:57;;;;;;;19.58;13.65;;;;;;;;;;4876564;29;20518;-94
2023/04/14 00:55:23;;;;;;;17.40;12.90;;;;;;;;;;4878273;29;20078;-93
2023/04/14 00:57:49;;;;;;;20.65;12.80;;;;;;;;;;4877209;29;20029;-93
2023/04/14 01:00:16;;;;;;;20.80;12.80;;;;;;;;;;4877619;29;20509;-92
2023/04/14 01:02:42;;;;;;;17.35;11.55;;;;;;;;;;4877273;29;20241;-92
2023/04/14 01:05:08;;;;;;;16.85;11.85;;;;;;;;;;4876024;29;20030;-93
2023/04/14 01:07:35;;;;;;;16.70;11.55;;;;;;;;;;4876123;29;20030;-94
2023/04/14 01:10:01;;;;;;;20.83;13.05;;;;;;;;;;4876384;29;20132;-93
2023/04/14 01:12:34;;;;;;;18.73;11.95;;;;;;;;;;4875558;29;20030;-91
2023/04/14 01:15:19;;;;;;;16.10;10.75;;;;;;;;;;4875685;29;20483;-91
2023/04/14 01:17:51;;;;;;;17.95;11.73;;;;;;;;;;4875735;29;20033;-95
2023/04/14 01:20:26;;;;;;;17.50;10.88;;;;;;;;;;4878100;29;20480;-94
2023/04/14 01:22:59;;;;;;;19.98;12.20;;;;;;;;;;4876388;29;20483;-95
2023/04/14 01:25:42;;;;;;;17.38;11.00;;;;;;;;;;4876625;29;20033;-92
2023/04/14 01:28:11;;;;;;;18.08;10.90;;;;;;;;;;4876891;29;20165;-95
2023/04/14 01:30:55;;;;;;;15.82;11.52;;;;;;;;;;4876500;29;20044;-95
2023/04/14 01:33:23;;;;;;;15.57;11.18;;;;;;;;;;4876101;29;20036;-94
2023/04/14 01:35:51;;;;;;;16.63;12.25;;;;;;;;;;4876045;29;20555;-95
2023/04/14 01:38:25;;;;;;;17.23;11.35;;;;;;;;;;4876403;29;20030;-93
2023/04/14 01:40:52;;;;;;;14.38;9.95;;;;;;;;;;4878888;29;20112;-94
2023/04/14 01:43:25;;;;;;;15.52;11.43;;;;;;;;;;4880329;29;20122;-94
2023/04/14 01:45:52;;;;;;;14.55;10.60;;;;;;;;;;4877827;29;20049;-94
2023/04/14 01:48:19;;;;;;;14.13;9.63;;;;;;;;;;4880898;29;20037;-96
2023/04/14 01:50:46;;;;;;;15.13;10.68;;;;;;;;;;4879017;29;20113;-94
2023/04/14 01:53:13;;;;;;;15.38;9.70;;;;;;;;;;4877959;29;20539;-94
2023/04/14 01:55:40;;;;;;;16.88;10.48;;;;;;;;;;4877212;29;20029;-94
2023/04/14 01:58:07;;;;;;;15.90;11.25;;;;;;;;;;4881360;29;20030;-92
2023/04/14 02:00:35;;;;;;;15.55;11.55;;;;;;;;;;4879936;29;20467;-93
2023/04/14 02:03:05;;;;;;;14.25;10.90;;;;;;;;;;4878866;29;20030;-93
2023/04/14 02:05:32;;;;;;;16.77;11.55;;;;;;;;;;4879689;29;20058;-94
2023/04/14 02:07:59;;;;;;;17.20;12.10;;;;;;;;;;4879848;29;20112;-93
2023/04/14 02:10:26;;;;;;;16.02;12.00;;;;;;;;;;4880049;29;20042;-94
2023/04/14 02:12:53;;;;;;;16.73;12.00;;;;;;;;;;4878394;29;20116;-94
2023/04/14 02:15:21;;;;;;;19.33;12.55;;;;;;;;;;4880754;29;20033;-93
2023/04/14 02:17:57;;;;;;;16.35;12.05;;;;;;;;;;4877757;29;20029;-95
2023/04/14 02:20:25;;;;;;;15.05;10.27;;;;;;;;;;4878434;29;20037;-93
2023/04/14 02:22:52;;;;;;;15.43;12.05;;;;;;;;;;4878054;29;20026;-93
2023/04/14 02:25:18;;;;;;;16.90;11.05;;;;;;;;;;4879391;29;20507;-93
2023/04/14 02:28:25;;;;;;;13.35;10.43;;;;;;;;;;4880993;29;20030;-95
2023/04/14 02:30:53;;;;;;;16.05;10.00;;;;;;;;;;4865196;29;20033;-93
2023/04/14 02:33:22;;;;;;;14.85;9.90;;;;;;;;;;4863489;29;20033;-93
2023/04/14 02:44:29;;;;;;;14.63;9.13;;;;;;;;;;4886879;29;20052;-96
2023/04/14 02:50:00;;;;;;;15.68;9.90;;;;;;;;;;4880565;29;20105;-95
2023/04/14 02:52:30;;;;;;;16.10;10.30;;;;;;;;;;4896950;29;20021;-93
2023/04/14 02:54:57;;;;;;;12.70;8.52;;;;;;;;;;4894137;29;20456;-94
2023/04/14 02:57:25;;;;;;;12.65;8.15;;;;;;;;;;4897112;29;20115;-95
2023/04/14 02:59:54;;;;;;;13.52;8.10;;;;;;;;;;4896809;29;20045;-92
2023/04/14 03:02:21;;;;;;;12.90;8.27;;;;;;;;;;4898287;29;20111;-93
2023/04/14 03:04:47;;;;;;;14.55;9.65;;;;;;;;;;4895221;29;20101;-92
2023/04/14 03:07:14;;;;;;;13.40;8.77;;;;;;;;;;4897848;29;20033;-92
2023/04/14 03:09:41;;;;;;;13.80;9.35;;;;;;;;;;4897095;29;20061;-95
2023/04/14 03:12:11;;;;;;;12.75;9.30;;;;;;;;;;4881598;29;20044;-93
2023/04/14 03:14:38;;;;;;;14.02;9.57;;;;;;;;;;4896405;29;20029;-94
2023/04/14 03:17:05;;;;;;;13.43;8.27;;;;;;;;;;4896876;29;20072;-93
2023/04/14 03:19:31;;;;;;;15.13;10.15;;;;;;;;;;4897180;29;20033;-93
2023/04/14 03:21:58;;;;;;;9.98;7.93;;;;;;;;;;4897137;29;20029;-94
2023/04/14 03:24:29;;;;;;;13.75;9.63;;;;;;;;;;4896853;29;20467;-93
2023/04/14 03:27:06;;;;;;;10.98;6.65;;;;;;;;;;4898091;29;20060;-94
2023/04/14 03:29:36;;;;;;;13.52;9.15;;;;;;;;;;4896047;29;20040;-94
2023/04/14 03:32:05;;;;;;;13.55;7.55;;;;;;;;;;4896069;29;20025;-94
2023/04/14 03:34:33;;;;;;;9.00;6.30;;;;;;;;;;4895511;29;20041;-93
2023/04/14 03:37:00;;;;;;;13.95;9.05;;;;;;;;;;4902580;29;20029;-94
2023/04/14 03:39:33;;;;;;;14.18;10.23;;;;;;;;;;4900182;29;20037;-94
2023/04/14 03:42:03;;;;;;;13.23;9.10;;;;;;;;;;4902412;29;20076;-95
2023/04/14 03:44:34;;;;;;;15.25;8.65;;;;;;;;;;4899354;29;20073;-94
2023/04/14 03:47:02;;;;;;;14.57;9.30;;;;;;;;;;4900688;29;20037;-96
2023/04/14 03:49:29;;;;;;;13.25;8.25;;;;;;;;;;4901147;29;20037;-95
2023/04/14 03:51:58;;;;;;;12.90;7.65;;;;;;;;;;4900755;29;20033;-94
2023/04/14 03:54:29;;;;;;;17.35;11.25;;;;;;;;;;4901842;29;20028;-94
2023/04/14 03:56:57;;;;;;;17.00;11.30;;;;;;;;;;4900166;29;20040;-93
2023/04/14 03:59:24;;;;;;;18.48;12.10;;;;;;;;;;4901820;29;20025;-92
2023/04/14 04:01:51;;;;;;;20.25;12.93;;;;;;;;;;4868893;29;20097;-92
2023/04/14 04:04:18;;;;;;;18.60;11.98;;;;;;;;;;4899490;29;20427;-94
2023/04/14 04:06:45;;;;;;;15.95;10.60;;;;;;;;;;4898334;29;20037;-94
2023/04/14 04:09:14;;;;;;;15.27;9.98;;;;;;;;;;4884597;29;20037;-93
2023/04/14 04:11:41;;;;;;;11.35;8.95;;;;;;;;;;4898360;29;20033;-93
2023/04/14 04:14:09;;;;;;;13.77;9.93;;;;;;;;;;4899814;29;20029;-94
2023/04/14 04:16:37;;;;;;;12.73;7.38;;;;;;;;;;4899694;29;20096;-94
2023/04/14 04:19:07;;;;;;;10.43;6.00;;;;;;;;;;4898549;29;20026;-95
2023/04/14 04:21:41;;;;;;;8.90;5.45;;;;;;;;;;4899658;29;20037;-94
2023/04/14 04:24:08;;;;;;;7.82;5.38;;;;;;;;;;4898486;29;20048;-94
2023/04/14 04:26:40;;;;;;;11.60;5.93;;;;;;;;;;4900817;29;20056;-94
2023/04/14 04:29:08;;;;;;;8.57;4.70;;;;;;;;;;4902877;29;20033;-95
2023/04/14 04:31:34;;;;;;;7.97;5.30;;;;;;;;;;4898558;29;20040;-93
2023/04/14 04:34:02;;;;;;;9.13;5.75;;;;;;;;;;4896084;29;20052;-94
2023/04/14 04:36:30;;;;;;;9.00;5.30;;;;;;;;;;4895041;29;20029;-93
2023/04/14 04:38:57;;;;;;;6.85;4.65;;;;;;;;;;4894953;29;20025;-93
2023/04/14 04:41:26;;;;;;;7.40;5.30;;;;;;;;;;4894275;29;20057;-93
2023/04/14 04:43:52;;;;;;;7.88;5.55;;;;;;;;;;4895500;29;20029;-92
2023/04/14 04:46:32;;;;;;;8.45;4.80;;;;;;;;;;4893934;29;20032;-93
2023/04/14 04:48:58;;;;;;;8.85;5.80;;;;;;;;;;4895160;29;20164;-93
2023/04/14 04:51:25;;;;;;;8.93;5.60;;;;;;;;;;4894668;29;20036;-93
2023/04/14 04:53:51;;;;;;;13.20;9.93;;;;;;;;;;4894521;29;20414;-92
2023/04/14 04:56:17;;;;;;;10.60;9.50;;;;;;;;;;4894626;29;20033;-93
2023/04/14 04:58:44;;;;;;;7.22;5.38;;;;;;;;;;4894369;29;20033;-91
2023/04/14 05:01:10;;;;;;;8.18;6.35;;;;;;;;;;4894316;29;20053;-92
2023/04/14 05:03:37;;;;;;;10.30;6.18;;;;;;;;;;4894105;29;20072;-92
2023/04/14 05:06:03;;;;;;;7.35;4.88;;;;;;;;;;4894804;29;20145;-92
2023/04/14 05:08:29;;;;;;;7.70;5.20;;;;;;;;;;4894304;29;20033;-92
2023/04/14 05:10:56;;;;;;;8.25;5.45;;;;;;;;;;4894196;29;20037;-91
2023/04/14 05:13:22;;;;;;;8.68;6.22;;;;;;;;;;4894276;29;20021;-91
2023/04/14 05:15:48;;;;;;;9.77;6.10;;;;;;;;;;4894030;29;20507;-91
2023/04/14 05:18:14;;;;;;;7.00;5.22;;;;;;;;;;4894602;29;20356;-92
2023/04/14 05:20:40;;;;;;;11.18;5.63;;;;;;;;;;4893953;29;20096;-91
2023/04/14 05:29:15;;;;;;;9.07;6.80;;;;;;;;;;4880467;29;20040;-92
2023/04/14 05:31:41;;;;;;;9.38;6.57;;;;;;;;;;4894286;29;20088;-92
2023/04/14 05:34:07;;;;;;;11.45;8.13;;;;;;;;;;4879529;29;20060;-93
2023/04/14 05:36:33;;;;;;;20.60;10.68;;;;;;;;;;4893965;29;20083;-92
2023/04/14 05:39:00;;;;;;;11.15;7.85;;;;;;;;;;4893938;29;20123;-91
2023/04/14 05:41:26;;;;;;;9.48;5.95;;;;;;;;;;4894892;29;20166;-91
2023/04/14 05:43:52;;;;;;;9.52;7.50;;;;;;;;;;4894408;29;20037;-91
2023/04/14 05:46:18;;;;;;;10.23;6.53;;;;;;;;;;4893848;29;20045;-96
2023/04/14 05:48:44;;;;;;;11.50;8.32;;;;;;;;;;4893685;29;20033;-92
2023/04/14 05:51:10;;;;;;;12.40;7.75;;;;;;;;;;4895173;29;20043;-92
2023/04/14 05:53:37;;;;;;;8.93;6.75;;;;;;;;;;4894671;29;20029;-92
2023/04/14 05:56:03;;;;;;;12.52;6.40;;;;;;;;;;4894553;29;20036;-93
2023/04/14 05:58:29;;;;;;;10.60;6.72;;;;;;;;;;4895569;29;20037;-92
2023/04/14 06:00:55;;;;;;;9.02;6.07;;;;;;;;;;4897055;29;20131;-92
2023/04/14 06:03:21;;;;;;;9.55;5.82;;;;;;;;;;4894361;29;20040;-92
2023/04/14 06:05:49;;;;;;;7.18;5.15;;;;;;;;;;4893268;29;20021;-92
2023/04/14 06:08:15;;;;;;;9.38;5.45;;;;;;;;;;4893196;29;20037;-92
2023/04/14 06:10:41;;;;;;;8.38;5.65;;;;;;;;;;4894256;29;20124;-90
2023/04/14 06:13:07;;;;;;;8.98;5.40;;;;;;;;;;4894632;29;20025;-92
2023/04/14 06:15:33;;;;;;;9.30;6.30;;;;;;;;;;4895230;29;20124;-91
2023/04/14 06:18:00;;;;;;;10.65;6.18;;;;;;;;;;4894093;29;20029;-91
2023/04/14 06:20:26;;;;;;;11.02;6.90;;;;;;;;;;4894419;29;20036;-91
2023/04/14 06:22:52;;;;;;;7.43;5.38;;;;;;;;;;4895220;29;20033;-93
2023/04/14 06:25:18;;;;;;;10.35;7.18;;;;;;;;;;4894866;29;20053;-94
2023/04/14 06:27:44;;;;;;;10.15;6.80;;;;;;;;;;4894929;29;20037;-91
2023/04/14 06:30:10;;;;;;;8.18;6.70;;;;;;;;;;4897153;29;20132;-93
2023/04/14 06:32:37;;;;;;;8.75;6.20;;;;;;;;;;4893433;29;20025;-94
2023/04/14 06:35:03;;;;;;;11.20;6.00;;;;;;;;;;4893596;29;20072;-93
2023/04/14 06:40:02;;;;;;;9.37;5.43;;;;;;;;;;4910688;23;20053;-91
2023/04/14 06:42:28;;;;;;;9.00;5.72;;;;;;;;;;4887294;29;20029;-91
2023/04/14 06:44:54;;;;;;;8.32;5.72;;;;;;;;;;4898132;29;20109;-95
2023/04/14 06:47:21;;;;;;;8.27;5.35;;;;;;;;;;4895419;29;20089;-91
2023/04/14 06:49:47;;;;;;;10.82;6.43;;;;;;;;;;4895507;29;20036;-92
2023/04/14 06:52:13;;;;;;;8.65;6.32;;;;;;;;;;4894095;29;20021;-94
2023/04/14 06:54:41;;;;;;;7.55;5.70;;;;;;;;;;4895357;29;20040;-93
2023/04/14 06:57:07;;;;;;;9.63;7.32;;;;;;;;;;4894929;29;20112;-94
2023/04/14 06:59:33;;;;;;;10.35;6.10;;;;;;;;;;4895189;29;20028;-93
2023/04/14 07:02:00;;;;;;;10.05;6.47;;;;;;;;;;4896038;29;20051;-94
2023/04/14 07:04:26;;;;;;;8.50;6.07;;;;;;;;;;4895838;29;20029;-92
2023/04/14 07:06:52;;;;;;;11.13;6.60;;;;;;;;;;5003768;23;20027;-93
2023/04/14 07:09:22;;;;;;;8.60;6.20;;;;;;;;;;4955008;23;20050;-93
2023/04/14 07:11:51;;;;;;;8.48;6.13;;;;;;;;;;4877930;29;20045;-95
2023/04/14 07:14:17;;;;;;;9.10;6.47;;;;;;;;;;4877495;29;20053;-92
2023/04/14 07:16:46;;;;;;;11.82;6.60;;;;;;;;;;4879118;29;20040;-93
2023/04/14 07:19:15;;;;;;;8.95;6.25;;;;;;;;;;4877302;29;20029;-93
2023/04/14 07:21:45;;;;;;;12.20;6.60;;;;;;;;;;4881196;29;20040;-96
2023/04/14 07:24:17;;;;;;;12.18;6.63;;;;;;;;;;4879316;29;20041;-92
2023/04/14 07:32:51;;;;;;;8.93;6.50;;;;;;;;;;4867351;29;20082;-93
2023/04/14 07:43:35;;;;;;;11.93;7.28;;;;;;;;;;5749550;23;19943;-90
2023/04/14 07:46:05;;;;;;;10.50;6.70;;;;;;;;;;4865326;29;20079;-91
2023/04/14 07:51:22;;;;;;;9.30;6.60;;;;;;;;;;4996437;23;20029;-94
2023/04/14 07:53:51;;;;;;;10.98;7.00;;;;;;;;;;4894562;29;20096;-93
2023/04/14 07:56:23;;;;;;;9.73;6.97;;;;;;;;;;4986062;23;20066;-90
2023/04/14 07:59:02;;;;;;;12.77;7.63;;;;;;;;;;4876909;29;20042;-94
2023/04/14 08:01:28;;;;;;;10.82;7.30;;;;;;;;;;4876601;29;20037;-92
2023/04/14 08:12:35;;;;;;;12.18;7.00;;;;;;;;;;4877796;29;20053;-92
2023/04/14 08:15:08;;;;;;;9.98;6.72;;;;;;;;;;4880129;29;20037;-92
2023/04/14 08:17:34;;;;;;;9.07;6.38;;;;;;;;;;5076369;23;20144;-92
2023/04/14 08:20:01;;;;;;;11.30;6.97;;;;;;;;;;4875643;29;20041;-94
2023/04/14 08:22:27;;;;;;;11.75;7.85;;;;;;;;;;4877681;29;20396;-91
2023/04/14 08:24:53;;;;;;;12.70;8.75;;;;;;;;;;4880362;29;20040;-91
2023/04/14 08:27:20;;;;;;;12.50;8.38;;;;;;;;;;4880595;29;20057;-92
2023/04/14 08:29:50;;;;;;;9.85;7.38;;;;;;;;;;4884024;29;20044;-91
2023/04/14 08:32:24;;;;;;;11.57;7.75;;;;;;;;;;4870455;29;20029;-90
2023/04/14 08:35:01;;;;;;;;;;;;;;;;;;;;;
2023/04/14 08:37:32;;;;;;;9.10;6.80;;;;;;;;;;4866063;29;20032;-96
2023/04/14 08:39:58;;;;;;;9.15;6.95;;;;;;;;;;4882892;29;20076;-91
2023/04/14 08:42:56;;;;;;;9.93;8.30;;;;;;;;;;4915442;23;20116;-93
2023/04/14 08:45:41;;;;;;;8.77;6.85;;;;;;;;;;4912542;23;20109;-91
2023/04/14 08:48:09;;;;;;;9.68;7.10;;;;;;;;;;4897999;29;20033;-90
2023/04/14 08:50:44;;;;;;;9.20;7.05;;;;;;;;;;4898597;29;20371;-91
2023/04/14 08:53:12;;;;;;;10.43;7.55;;;;;;;;;;4898447;29;20104;-92
2023/04/14 08:55:48;;;;;;;10.68;8.50;;;;;;;;;;4898782;29;20037;-96
2023/04/14 08:58:15;;;;;;;11.82;7.43;;;;;;;;;;4902223;29;20096;-91
2023/04/14 09:00:41;;;;;;;11.60;8.00;;;;;;;;;;4901254;29;20052;-92
2023/04/14 09:03:10;;;;;;;11.57;7.05;;;;;;;;;;4898695;29;20056;-94
2023/04/14 09:05:39;;;;;;;12.07;7.57;;;;;;;;;;4897669;29;20406;-91
2023/04/14 09:08:06;;;;;;;12.18;8.23;;;;;;;;;;4882586;29;20057;-91
2023/04/14 09:10:34;;;;;;;10.43;7.88;;;;;;;;;;4894511;29;20032;-90
2023/04/14 09:13:00;;;;;;;10.07;6.75;;;;;;;;;;4896354;29;20537;-91
2023/04/14 09:15:27;;;;;;;9.02;7.00;;;;;;;;;;4895738;29;20112;-91
2023/04/14 09:17:54;;;;;;;11.02;7.82;;;;;;;;;;4895979;29;20117;-91
2023/04/14 09:20:26;;;;;;;9.23;7.15;;;;;;;;;;4895854;29;20136;-92
2023/04/14 09:22:52;;;;;;;9.05;6.38;;;;;;;;;;4896115;29;20091;-90
2023/04/14 09:25:22;;;;;;;9.82;6.38;;;;;;;;;;4897106;29;20025;-92
2023/04/14 09:27:49;;;;;;;9.73;6.22;;;;;;;;;;4897057;29;20518;-91
2023/04/14 09:33:08;;;;;;;12.15;6.93;;;;;;;;;;4996212;23;20117;-93
2023/04/14 09:35:50;;;;;;;8.27;6.35;;;;;;;;;;4862380;29;20051;-92
2023/04/14 09:38:38;;;;;;;9.90;7.07;;;;;;;;;;4880524;29;20021;-90
2023/04/14 09:41:33;;;;;;;9.93;7.38;;;;;;;;;;5010912;24;20064;-90
2023/04/14 09:44:46;;;;;;;11.65;7.40;;;;;;;;;;4853047;29;20037;-92
2023/04/14 09:52:48;;;;;;;10.18;7.20;;;;;;;;;;4910227;24;20151;-90
2023/04/14 09:59:02;;;;;;;11.55;8.80;;;;;;;;;;4842277;29;20057;-94
2023/04/14 10:01:35;;;;;;;10.13;7.78;;;;;;;;;;4822629;29;20208;-93
2023/04/14 10:04:05;;;;;;;8.98;6.75;;;;;;;;;;4879747;29;20029;-91
2023/04/14 10:06:34;;;;;;;9.73;7.57;;;;;;;;;;4876458;29;20486;-92
2023/04/14 10:09:26;;;;;;;8.98;6.82;;;;;;;;;;4879629;29;20064;-94
2023/04/14 10:12:08;;;;;;;11.00;8.30;;;;;;;;;;4880632;29;20029;-91
2023/04/14 10:14:34;;;;;;;8.90;7.30;;;;;;;;;;4879693;29;20029;-94
2023/04/14 10:17:01;;;;;;;12.38;6.90;;;;;;;;;;4879646;29;20628;-93
2023/04/14 10:19:35;;;;;;;10.32;7.78;;;;;;;;;;4879554;29;20093;-95
2023/04/14 10:22:01;;;;;;;9.07;7.57;;;;;;;;;;4879939;29;20051;-92
2023/04/14 10:24:27;;;;;;;9.45;6.70;;;;;;;;;;4879436;29;20554;-95
2023/04/14 10:26:54;;;;;;;12.48;8.30;;;;;;;;;;4879593;29;20033;-92
2023/04/14 10:29:27;;;;;;;12.65;7.22;;;;;;;;;;4879919;29;20037;-94
2023/04/14 10:38:31;;;;;;;10.95;7.65;;;;;;;;;;4820661;29;20392;-93
2023/04/14 10:41:09;;;;;;;12.60;7.93;;;;;;;;;;4825478;29;20111;-93
2023/04/14 10:52:59;;;;;;;10.40;7.88;;;;;;;;;;4946575;23;20285;-93
2023/04/14 10:55:59;;;;;;;10.70;7.32;;;;;;;;;;4881140;29;20061;-91
2023/04/14 10:58:28;;;;;;;10.05;7.25;;;;;;;;;;4894123;29;20376;-93
2023/04/14 11:00:56;;;;;;;9.45;7.25;;;;;;;;;;4895420;29;20103;-92
2023/04/14 11:03:22;;;;;;;10.88;7.90;;;;;;;;;;4906884;29;20041;-94
2023/04/14 11:05:49;;;;;;;9.23;7.30;;;;;;;;;;4914839;29;20037;-93
2023/04/14 11:08:17;;;;;;;10.93;8.20;;;;;;;;;;4894309;29;20036;-93
2023/04/14 11:10:52;;;;;;;10.70;8.20;;;;;;;;;;4895431;29;20115;-92
2023/04/14 11:13:22;;;;;;;11.73;7.70;;;;;;;;;;4879825;29;20039;-92
2023/04/14 11:16:16;;;;;;;4.93;3.83;;;;;;;;;;4894450;29;20025;-94
2023/04/14 11:18:44;;;;;;;;;;;;;;;;;;4893006;29;20029;-92
2023/04/14 11:21:15;;;;;;;2.50;1.40;;;;;;;;;;4893224;29;20362;-90
2023/04/14 11:23:42;;;;;;;3.00;2.00;;;;;;;;;;4878806;29;20049;-92
2023/04/14 11:26:12;;;;;;;4.05;2.45;;;;;;;;;;4878330;29;20021;-91
2023/04/14 11:28:40;;;;;;;5.85;2.58;;;;;;;;;;4893066;29;20039;-92
2023/04/14 11:31:07;;;;;;;3.60;2.10;;;;;;;;;;4893473;29;20044;-91
2023/04/14 11:33:35;;;;;;;5.68;1.50;;;;;;;;;;4893934;29;20033;-90
2023/04/14 11:39:07;;;;;;;2.70;1.10;;;;;;;;;;4879295;29;20154;-91
2023/04/14 11:41:36;;;;;;;2.13;1.13;;;;;;;;;;4894075;29;20033;-90
2023/04/14 11:44:03;;;;;;;3.47;1.40;;;;;;;;;;4892482;29;20025;-91
2023/04/14 11:46:29;;;;;;;3.90;1.55;;;;;;;;;;4893635;29;20065;-92
2023/04/14 11:48:55;;;;;;;3.22;1.50;;;;;;;;;;4898720;29;20328;-92
2023/04/14 11:51:28;;;;;;;2.85;1.33;;;;;;;;;;4894390;29;20057;-91
2023/04/14 11:54:01;;;;;;;4.57;1.55;;;;;;;;;;5201036;23;20257;-92
2023/04/14 11:56:27;;;;;;;4.00;1.73;;;;;;;;;;4924525;23;20052;-93
2023/04/14 12:14:48;;;;;;;2.90;1.55;;;;;;;;;;4709381;23;21387;31
2023/04/14 12:17:20;;;;;;;3.03;1.58;;;;;;;;;;4822292;29;20068;-91
2023/04/14 12:20:04;;;;;;;8.38;1.90;;;;;;;;;;4823197;29;20054;-92
2023/04/14 12:22:30;;;;;;;3.65;1.30;;;;;;;;;;4824800;29;20027;-94
2023/04/14 12:25:15;;;;;;;3.35;1.13;;;;;;;;;;4825355;29;20063;-93
2023/04/14 12:27:42;;;;;;;3.28;1.65;;;;;;;;;;4827319;29;20106;-94
2023/04/14 12:30:09;;;;;;;2.65;1.20;;;;;;;;;;4812497;29;20034;-94
2023/04/14 12:32:42;;;;;;;2.38;1.30;;;;;;;;;;4804888;29;20030;-95
2023/04/14 12:38:17;;;;;;;2.13;1.00;;;;;;;;;;4957309;23;20048;-95
2023/04/14 12:40:47;;;;;;;2.90;1.00;;;;;;;;;;4892882;29;20049;-92
2023/04/14 12:43:32;;;;;;;1.83;0.90;;;;;;;;;;4898955;29;20380;-95
2023/04/14 12:46:33;;;;;;;2.22;1.13;;;;;;;;;;4886537;29;20072;-92
2023/04/14 12:49:03;;;;;;;3.45;1.75;;;;;;;;;;4898908;29;20014;-96
2023/04/14 12:54:50;;;;;;;3.10;1.50;;;;;;;;;;4895160;29;20044;-92
2023/04/14 12:57:44;;;;;;;3.05;1.40;;;;;;;;;;4913746;29;20013;-95
2023/04/14 13:00:11;;;;;;;2.03;0.93;;;;;;;;;;4907558;29;20044;-91
2023/04/14 13:05:55;;;;;;;1.83;1.00;;;;;;;;;;5398087;23;20064;-91
2023/04/14 13:14:12;;;;;;;1.52;0.70;;;;;;;;;;4920032;23;19971;-95
2023/04/14 13:35:42;;;;;;;1.63;0.60;;;;;;;;;;5711045;23;20080;-92
2023/04/14 13:41:36;;;;;;;1.10;0.40;;;;;;;;;;4894115;29;20083;-95
2023/04/14 13:44:05;;;;;;;1.10;0.50;;;;;;;;;;4886078;29;20112;-94
2023/04/14 13:52:29;;;;;;;0.73;0.30;;;;;;;;;;4891483;29;20037;-96
2023/04/14 14:02:50;;;;;;;0.98;0.30;;;;;;;;;;5500548;23;20094;-93
2023/04/14 14:07:56;;;;;;;2.00;0.30;;;;;;;;;;5131166;23;20052;-92
2023/04/14 14:16:18;;;;;;;0.82;0.30;;;;;;;;;;5541198;23;21311;-92
2023/04/14 14:21:21;;;;;;;1.05;0.40;;;;;;;;;;5098502;23;20056;-92
2023/04/14 14:26:57;;;;;;;0.73;0.38;;;;;;;;;;5145212;23;20061;-96
2023/04/14 14:29:23;;;;;;;0.80;0.30;;;;;;;;;;4945859;23;20041;-91
2023/04/14 14:32:08;;;;;;;0.30;0.10;;;;;;;;;;5004430;23;20049;-96
2023/04/14 14:37:50;;;;;;;2.00;0.75;;;;;;;;;;4983435;23;20111;-96
2023/04/14 14:42:48;;;;;;;1.13;0.43;;;;;;;;;;5660354;23;20031;-93
2023/04/14 14:45:17;;;;;;;1.45;0.60;;;;;;;;;;4904077;29;20037;-92
2023/04/14 15:02:58;;;;;;;3.35;1.00;;;;;;;;;;5035478;23;20037;-94
2023/04/14 15:08:28;;;;;;;2.85;0.60;;;;;;;;;;5128411;23;20381;-96
2023/04/14 15:13:58;;;;;;;0.87;0.50;;;;;;;;;;5766581;23;20057;-93
2023/04/14 15:19:25;;;;;;;1.02;0.50;;;;;;;;;;4901408;23;20052;-96
2023/04/14 15:21:55;;;;;;;1.48;0.82;;;;;;;;;;4920418;23;20647;-91
2023/04/14 15:36:10;;;;;;;1.38;0.70;;;;;;;;;;5215409;23;20039;-95
2023/04/14 15:41:46;;;;;;;3.20;1.60;;;;;;;;;;4989069;23;20056;-95
2023/04/14 16:21:46;;;;;;;0.95;0.40;;;;;;;;;;5549822;23;20041;-95
2023/04/14 16:32:00;;;;;;;3.33;0.88;;;;;;;;;;5009403;23;20084;-95
2023/04/14 16:39:54;;;;;;;2.60;1.17;;;;;;;;;;5462628;23;20072;-92
2023/04/14 16:57:58;;;;;;;2.28;0.77;;;;;;;;;;5198967;23;20067;-92
2023/04/14 17:03:02;;;;;;;1.33;0.40;;;;;;;;;;5681224;23;20024;-90
2023/04/14 17:05:28;;;;;;;3.25;0.50;;;;;;;;;;4915503;23;20048;-91
2023/04/14 17:07:54;;;;;;;1.73;0.47;;;;;;;;;;4907684;29;20044;-92
2023/04/14 17:10:28;;;;;;;0.73;0.40;;;;;;;;;;4906602;29;20032;-91
2023/04/14 17:13:06;;;;;;;0.88;0.40;;;;;;;;;;4892691;29;20040;-96
2023/04/14 17:15:34;;;;;;;0.82;0.38;;;;;;;;;;5116040;23;20048;-94
2023/04/14 17:18:00;;;;;;;1.67;0.60;;;;;;;;;;4939996;23;20088;-94
2023/04/14 17:20:27;;;;;;;1.30;0.52;;;;;;;;;;5317380;23;20039;-93
2023/04/14 17:23:26;;;;;;;1.10;0.40;;;;;;;;;;5386484;23;20061;-93
2023/04/14 17:38:13;;;;;;;1.38;0.50;;;;;;;;;;5882782;23;20024;-92
2023/04/14 17:40:39;;;;;;;1.33;0.60;;;;;;;;;;4991164;23;20109;-92
2023/04/14 17:43:05;;;;;;;2.13;0.70;;;;;;;;;;5109310;23;20043;-90
2023/04/14 17:45:51;;;;;;;2.20;1.08;;;;;;;;;;4906097;29;20061;-93
2023/04/14 17:48:18;;;;;;;1.60;0.82;;;;;;;;;;5146594;23;20899;-92
2023/04/14 17:53:27;;;;;;;1.73;0.80;;;;;;;;;;5034413;23;20091;-92
2023/04/14 17:55:56;;;;;;;;;;;;;;;;;;4905950;29;20053;-93
2023/04/14 17:58:27;;;;;;;1.95;0.90;;;;;;;;;;4906571;29;19907;-93
2023/04/14 18:03:33;;;;;;;2.10;1.00;;;;;;;;;;5321252;23;20081;-93
2023/04/14 18:05:59;;;;;;;2.50;1.30;;;;;;;;;;5100283;23;20813;-93
2023/04/14 18:19:49;;;;;;;4.97;2.50;;;;;;;;;;5081426;23;20402;-93
2023/04/14 18:22:25;;;;;;;3.80;2.60;;;;;;;;;;5065299;23;20056;-93
2023/04/14 18:24:51;;;;;;;3.53;2.50;;;;;;;;;;4905846;29;20037;-93
2023/04/14 18:32:28;;;;;;;2.17;1.05;;;;;;;;;;5228877;23;20120;-93
2023/04/14 18:34:55;;;;;;;1.77;1.00;;;;;;;;;;4900782;29;20033;-94
2023/04/14 18:37:25;;;;;;;2.58;1.30;;;;;;;;;;5264361;23;20053;-94
2023/04/14 18:39:51;;;;;;;2.70;1.50;;;;;;;;;;4976934;23;20050;-93
2023/04/14 18:42:17;;;;;;;2.30;1.10;;;;;;;;;;5070032;23;20050;-94
2023/04/14 18:44:44;;;;;;;2.55;1.27;;;;;;;;;;5541174;23;20061;-93
2023/04/14 18:52:33;;;;;;;3.00;1.70;;;;;;;;;;4965123;23;20145;-96
2023/04/14 19:57:53;;;;;;;6.45;4.50;;;;;;;;;;4331823;23;20032;-94
2023/04/14 22:24:10;;;;;;;2.80;1.73;;;;;;;;;;5827519;23;21336;-93
2023/04/14 22:52:44;;;;;;;4.95;3.22;;;;;;;;;;5763558;23;20038;-96
2023/04/14 22:58:58;;;;;;;5.60;4.50;;;;;;;;;;5871681;23;21063;-93
2023/04/14 23:09:35;;;;;;;9.98;6.38;;;;;;;;;;5957236;23;21034;-91
2023/04/14 23:14:37;;;;;;;7.90;5.57;;;;;;;;;;5687694;23;20051;-94
